Portada
METAR-TAF:

METAR-TAF

Aeroports :

Moscou, Rússia

latitud: 55-30-42N, longitud: 037-30-26E, altitud: 173 m

Observació

L'informe es va fer fa 30 minuts, a les 19:30 UTC
Vent 14 kt del Oest/Sud-Oest
Temperatura 4°C
Humitat 75%
Pressió 1009 hPa
Visibilitat 10 km o més
sense núvols per sota de 1500 mi sense presència de cumulonimbus.

METAR: UUMO 171930Z 24007MPS CAVOK 04/M00 Q1009 R26/210360 NOSIG RMK QFE741/0989

Hora: 23:00 (20:00 UTC)

Pronòstic

L'informe es va fer fa 3 hores i 5 minuts, a les 16:55 UTC
Pronòstic vàlid del 17 a les 18 UTC al 18 a les 03 UTC
Vent 17 kt del Sud-Oest
Visibilitat 10 km o més
Cel ennuvolat a una alçada de 4000 ft
Temporalment
l' 17 a les 18 UTC al 17 a les 21 UTC
Cel ennuvolat a una alçada de 1500 ft, Cumulonimbus.
xàfecs de pluja

TAF: UUMO 171655Z 1718/1803 22009MPS 9999 BKN040 TEMPO 1718/1721 -SHRA BKN015CB

Observacions i pronòstics meteorològics de més de 4000 aeroports (METAR i TAF).

Les estacions disponibles són els punts grocs i vermells al mapa.

Posi el ratolí al punt desitjat per veure el nom de l'estació.

Feu clic per veure les observacions i els pronòstics meteorològics.

Per canviar el mapa: feu clic els botons verds amb una creu de color negre per apropar; al botó verd amb un guió per allunyar la imatge; o en les fletxes verdes per a mapes adjacents.


METAR-TAF: